sensor_id;sensor_type;location;lat;lon;timestamp;P1;durP1;ratioP1;P2;durP2;ratioP2
75356;SDS011;63946;51.986;5.930;2023-08-20T06:14:17;7.47;;;4.82;;
75356;SDS011;63946;51.986;5.930;2023-08-20T06:16:46;6.80;;;4.45;;
75356;SDS011;63946;51.986;5.930;2023-08-20T06:19:15;6.90;;;4.50;;
75356;SDS011;63946;51.986;5.930;2023-08-20T06:21:43;6.78;;;4.10;;
75356;SDS011;63946;51.986;5.930;2023-08-20T06:24:12;7.68;;;3.97;;
75356;SDS011;63946;51.986;5.930;2023-08-20T06:26:41;8.35;;;4.18;;
75356;SDS011;63946;51.986;5.930;2023-08-20T06:29:10;6.95;;;3.75;;
75356;SDS011;63946;51.986;5.930;2023-08-20T06:31:40;9.23;;;4.78;;
75356;SDS011;63946;51.986;5.930;2023-08-20T06:34:09;6.18;;;4.00;;
75356;SDS011;63946;51.986;5.930;2023-08-20T06:36:38;8.05;;;4.53;;
75356;SDS011;63946;51.986;5.930;2023-08-20T06:39:06;6.72;;;4.05;;
75356;SDS011;63946;51.986;5.930;2023-08-20T06:41:36;7.70;;;3.63;;
75356;SDS011;63946;51.986;5.930;2023-08-20T06:44:16;6.50;;;3.90;;
75356;SDS011;63946;51.986;5.930;2023-08-20T06:46:46;14.20;;;3.97;;
75356;SDS011;63946;51.986;5.930;2023-08-20T06:49:15;7.45;;;3.92;;
75356;SDS011;63946;51.986;5.930;2023-08-20T06:51:46;9.70;;;4.65;;
75356;SDS011;63946;51.986;5.930;2023-08-20T06:54:15;7.85;;;3.25;;
75356;SDS011;63946;51.986;5.930;2023-08-20T06:56:44;6.10;;;3.10;;
75356;SDS011;63946;51.986;5.930;2023-08-20T06:59:12;7.57;;;3.05;;
75356;SDS011;63946;51.986;5.930;2023-08-20T07:01:42;6.60;;;3.00;;
75356;SDS011;63946;51.986;5.930;2023-08-20T07:04:11;6.22;;;3.17;;
75356;SDS011;63946;51.986;5.930;2023-08-20T07:06:40;7.88;;;3.35;;
75356;SDS011;63946;51.986;5.930;2023-08-20T07:09:08;6.45;;;2.97;;
75356;SDS011;63946;51.986;5.930;2023-08-20T07:11:37;8.63;;;2.90;;
75356;SDS011;63946;51.986;5.930;2023-08-20T07:14:06;8.85;;;2.92;;
75356;SDS011;63946;51.986;5.930;2023-08-20T07:16:35;4.20;;;2.50;;
75356;SDS011;63946;51.986;5.930;2023-08-20T07:19:03;6.78;;;2.88;;
75356;SDS011;63946;51.986;5.930;2023-08-20T07:21:32;7.18;;;3.53;;
75356;SDS011;63946;51.986;5.930;2023-08-20T07:24:01;6.15;;;3.30;;
75356;SDS011;63946;51.986;5.930;2023-08-20T07:26:30;7.55;;;2.83;;
75356;SDS011;63946;51.986;5.930;2023-08-20T07:28:58;4.53;;;2.40;;
75356;SDS011;63946;51.986;5.930;2023-08-20T07:31:28;6.82;;;2.83;;
75356;SDS011;63946;51.986;5.930;2023-08-20T07:33:59;4.18;;;2.70;;
75356;SDS011;63946;51.986;5.930;2023-08-20T07:36:30;6.22;;;2.67;;
75356;SDS011;63946;51.986;5.930;2023-08-20T07:38:59;7.05;;;3.05;;
75356;SDS011;63946;51.986;5.930;2023-08-20T07:41:28;7.25;;;2.75;;
75356;SDS011;63946;51.986;5.930;2023-08-20T07:43:57;5.97;;;2.83;;
75356;SDS011;63946;51.986;5.930;2023-08-20T07:46:26;6.13;;;2.38;;
75356;SDS011;63946;51.986;5.930;2023-08-20T07:48:55;9.27;;;2.50;;
75356;SDS011;63946;51.986;5.930;2023-08-20T07:51:24;7.35;;;2.53;;
75356;SDS011;63946;51.986;5.930;2023-08-20T07:53:52;5.38;;;1.95;;
75356;SDS011;63946;51.986;5.930;2023-08-20T07:56:23;6.47;;;2.25;;
75356;SDS011;63946;51.986;5.930;2023-08-20T07:58:52;3.33;;;1.77;;
75356;SDS011;63946;51.986;5.930;2023-08-20T08:01:21;5.82;;;1.83;;
75356;SDS011;63946;51.986;5.930;2023-08-20T08:03:49;4.03;;;1.63;;
75356;SDS011;63946;51.986;5.930;2023-08-20T08:06:18;5.25;;;1.85;;
75356;SDS011;63946;51.986;5.930;2023-08-20T08:08:48;3.53;;;1.60;;
75356;SDS011;63946;51.986;5.930;2023-08-20T08:11:17;4.75;;;1.63;;
75356;SDS011;63946;51.986;5.930;2023-08-20T08:13:46;4.78;;;1.77;;
75356;SDS011;63946;51.986;5.930;2023-08-20T08:16:14;4.72;;;1.95;;
75356;SDS011;63946;51.986;5.930;2023-08-20T08:18:45;3.67;;;1.55;;
75356;SDS011;63946;51.986;5.930;2023-08-20T08:21:14;7.35;;;2.45;;
75356;SDS011;63946;51.986;5.930;2023-08-20T08:23:43;5.32;;;1.83;;
75356;SDS011;63946;51.986;5.930;2023-08-20T08:26:12;5.30;;;1.83;;
75356;SDS011;63946;51.986;5.930;2023-08-20T08:28:41;6.50;;;1.92;;
75356;SDS011;63946;51.986;5.930;2023-08-20T08:31:09;4.22;;;1.25;;
75356;SDS011;63946;51.986;5.930;2023-08-20T08:33:38;3.90;;;1.20;;
75356;SDS011;63946;51.986;5.930;2023-08-20T08:36:07;4.22;;;1.20;;
75356;SDS011;63946;51.986;5.930;2023-08-20T08:38:36;5.72;;;1.83;;
75356;SDS011;63946;51.986;5.930;2023-08-20T08:41:06;4.30;;;1.23;;
75356;SDS011;63946;51.986;5.930;2023-08-20T08:43:39;4.40;;;1.63;;
75356;SDS011;63946;51.986;5.930;2023-08-20T08:46:12;3.47;;;1.17;;
75356;SDS011;63946;51.986;5.930;2023-08-20T08:48:42;3.08;;;1.10;;
75356;SDS011;63946;51.986;5.930;2023-08-20T08:51:13;4.00;;;1.63;;
75356;SDS011;63946;51.986;5.930;2023-08-20T08:53:42;3.55;;;1.70;;
75356;SDS011;63946;51.986;5.930;2023-08-20T08:56:12;4.28;;;1.20;;
75356;SDS011;63946;51.986;5.930;2023-08-20T08:58:40;2.40;;;1.08;;
75356;SDS011;63946;51.986;5.930;2023-08-20T09:01:09;4.10;;;1.42;;
75356;SDS011;63946;51.986;5.930;2023-08-20T09:03:38;2.35;;;1.05;;
75356;SDS011;63946;51.986;5.930;2023-08-20T09:06:08;2.50;;;1.45;;
75356;SDS011;63946;51.986;5.930;2023-08-20T09:08:37;3.53;;;1.35;;
75356;SDS011;63946;51.986;5.930;2023-08-20T09:11:06;3.60;;;1.33;;
75356;SDS011;63946;51.986;5.930;2023-08-20T09:13:36;4.35;;;1.50;;
75356;SDS011;63946;51.986;5.930;2023-08-20T09:16:07;4.80;;;1.30;;
75356;SDS011;63946;51.986;5.930;2023-08-20T09:18:40;2.83;;;1.10;;
75356;SDS011;63946;51.986;5.930;2023-08-20T09:21:10;4.38;;;1.38;;
75356;SDS011;63946;51.986;5.930;2023-08-20T09:26:13;4.38;;;1.23;;
75356;SDS011;63946;51.986;5.930;2023-08-20T09:28:43;3.83;;;1.30;;
75356;SDS011;63946;51.986;5.930;2023-08-20T09:31:14;4.30;;;1.58;;
75356;SDS011;63946;51.986;5.930;2023-08-20T09:33:50;3.30;;;1.10;;
75356;SDS011;63946;51.986;5.930;2023-08-20T09:36:28;2.22;;;1.10;;
75356;SDS011;63946;51.986;5.930;2023-08-20T09:39:00;2.47;;;1.20;;
75356;SDS011;63946;51.986;5.930;2023-08-20T09:41:30;3.83;;;1.40;;
75356;SDS011;63946;51.986;5.930;2023-08-20T09:43:59;3.35;;;1.38;;
75356;SDS011;63946;51.986;5.930;2023-08-20T09:46:29;5.40;;;1.00;;
75356;SDS011;63946;51.986;5.930;2023-08-20T09:48:59;2.78;;;0.80;;
75356;SDS011;63946;51.986;5.930;2023-08-20T09:51:29;2.45;;;0.90;;
75356;SDS011;63946;51.986;5.930;2023-08-20T09:54:13;3.55;;;1.17;;
75356;SDS011;63946;51.986;5.930;2023-08-20T09:56:49;3.22;;;1.17;;
75356;SDS011;63946;51.986;5.930;2023-08-20T09:59:22;2.75;;;1.10;;
75356;SDS011;63946;51.986;5.930;2023-08-20T10:01:52;2.80;;;1.05;;
75356;SDS011;63946;51.986;5.930;2023-08-20T10:04:21;2.40;;;0.90;;
75356;SDS011;63946;51.986;5.930;2023-08-20T10:06:50;2.50;;;1.00;;
75356;SDS011;63946;51.986;5.930;2023-08-20T10:11:49;3.03;;;1.00;;
75356;SDS011;63946;51.986;5.930;2023-08-20T10:14:18;4.47;;;1.00;;
75356;SDS011;63946;51.986;5.930;2023-08-20T10:16:47;5.47;;;1.17;;
75356;SDS011;63946;51.986;5.930;2023-08-20T10:19:16;3.00;;;0.90;;
75356;SDS011;63946;51.986;5.930;2023-08-20T10:21:45;2.90;;;1.35;;
75356;SDS011;63946;51.986;5.930;2023-08-20T10:24:18;2.85;;;1.00;;
75356;SDS011;63946;51.986;5.930;2023-08-20T10:26:48;2.90;;;1.13;;
75356;SDS011;63946;51.986;5.930;2023-08-20T10:29:35;2.28;;;1.08;;
75356;SDS011;63946;51.986;5.930;2023-08-20T10:32:10;3.05;;;0.90;;
75356;SDS011;63946;51.986;5.930;2023-08-20T10:34:42;3.55;;;1.10;;
75356;SDS011;63946;51.986;5.930;2023-08-20T10:37:12;2.90;;;0.82;;
75356;SDS011;63946;51.986;5.930;2023-08-20T10:39:41;3.88;;;1.02;;
75356;SDS011;63946;51.986;5.930;2023-08-20T10:48:02;3.70;;;1.10;;
75356;SDS011;63946;51.986;5.930;2023-08-20T10:50:25;1.77;;;0.77;;
75356;SDS011;63946;51.986;5.930;2023-08-20T10:53:01;2.15;;;0.80;;
75356;SDS011;63946;51.986;5.930;2023-08-20T10:55:33;3.88;;;0.70;;
75356;SDS011;63946;51.986;5.930;2023-08-20T10:58:03;1.80;;;0.70;;
75356;SDS011;63946;51.986;5.930;2023-08-20T11:00:33;2.70;;;0.90;;
75356;SDS011;63946;51.986;5.930;2023-08-20T11:03:01;2.95;;;1.05;;
75356;SDS011;63946;51.986;5.930;2023-08-20T11:05:31;4.53;;;1.10;;
75356;SDS011;63946;51.986;5.930;2023-08-20T11:08:00;2.78;;;0.88;;
75356;SDS011;63946;51.986;5.930;2023-08-20T11:10:32;2.63;;;1.05;;
75356;SDS011;63946;51.986;5.930;2023-08-20T11:13:01;1.73;;;0.77;;
75356;SDS011;63946;51.986;5.930;2023-08-20T11:18:01;1.63;;;0.80;;
75356;SDS011;63946;51.986;5.930;2023-08-20T11:20:30;3.55;;;1.15;;
75356;SDS011;63946;51.986;5.930;2023-08-20T11:23:02;3.35;;;1.13;;
75356;SDS011;63946;51.986;5.930;2023-08-20T11:25:31;2.55;;;0.93;;
75356;SDS011;63946;51.986;5.930;2023-08-20T11:27:59;4.35;;;1.10;;
75356;SDS011;63946;51.986;5.930;2023-08-20T11:30:31;2.00;;;0.90;;
75356;SDS011;63946;51.986;5.930;2023-08-20T11:33:00;2.05;;;0.75;;
75356;SDS011;63946;51.986;5.930;2023-08-20T11:35:30;4.07;;;0.70;;
75356;SDS011;63946;51.986;5.930;2023-08-20T11:37:59;2.22;;;0.90;;
75356;SDS011;63946;51.986;5.930;2023-08-20T11:40:29;3.00;;;0.93;;
75356;SDS011;63946;51.986;5.930;2023-08-20T11:42:58;4.47;;;1.05;;
75356;SDS011;63946;51.986;5.930;2023-08-20T11:45:27;2.78;;;1.20;;
75356;SDS011;63946;51.986;5.930;2023-08-20T11:47:56;3.13;;;0.90;;
75356;SDS011;63946;51.986;5.930;2023-08-20T11:50:26;2.25;;;0.93;;
75356;SDS011;63946;51.986;5.930;2023-08-20T11:52:55;3.40;;;0.85;;
75356;SDS011;63946;51.986;5.930;2023-08-20T11:55:29;2.92;;;0.90;;
75356;SDS011;63946;51.986;5.930;2023-08-20T11:57:58;2.15;;;1.10;;
75356;SDS011;63946;51.986;5.930;2023-08-20T12:00:30;3.47;;;0.90;;
75356;SDS011;63946;51.986;5.930;2023-08-20T12:03:08;2.95;;;0.70;;
75356;SDS011;63946;51.986;5.930;2023-08-20T12:05:40;3.88;;;1.17;;
75356;SDS011;63946;51.986;5.930;2023-08-20T12:08:14;2.58;;;1.00;;
75356;SDS011;63946;51.986;5.930;2023-08-20T12:10:44;4.35;;;0.95;;
75356;SDS011;63946;51.986;5.930;2023-08-20T12:13:13;2.88;;;1.08;;
75356;SDS011;63946;51.986;5.930;2023-08-20T12:15:42;2.53;;;0.80;;
75356;SDS011;63946;51.986;5.930;2023-08-20T12:18:11;4.22;;;0.90;;
75356;SDS011;63946;51.986;5.930;2023-08-20T12:20:41;1.90;;;0.80;;
75356;SDS011;63946;51.986;5.930;2023-08-20T12:25:41;3.35;;;0.98;;
75356;SDS011;63946;51.986;5.930;2023-08-20T12:28:11;4.40;;;1.05;;
75356;SDS011;63946;51.986;5.930;2023-08-20T12:30:39;2.17;;;1.00;;
75356;SDS011;63946;51.986;5.930;2023-08-20T12:33:08;3.70;;;1.42;;
75356;SDS011;63946;51.986;5.930;2023-08-20T12:35:37;3.03;;;1.08;;
75356;SDS011;63946;51.986;5.930;2023-08-20T12:38:06;3.90;;;1.60;;
75356;SDS011;63946;51.986;5.930;2023-08-20T12:40:35;2.33;;;0.70;;
75356;SDS011;63946;51.986;5.930;2023-08-20T12:43:04;2.67;;;0.82;;
75356;SDS011;63946;51.986;5.930;2023-08-20T12:45:32;2.92;;;1.20;;
75356;SDS011;63946;51.986;5.930;2023-08-20T12:48:02;3.47;;;0.75;;
75356;SDS011;63946;51.986;5.930;2023-08-20T12:50:42;2.70;;;1.02;;
75356;SDS011;63946;51.986;5.930;2023-08-20T12:53:11;2.63;;;0.98;;
75356;SDS011;63946;51.986;5.930;2023-08-20T12:55:42;3.58;;;1.17;;
75356;SDS011;63946;51.986;5.930;2023-08-20T12:58:11;4.75;;;0.90;;
75356;SDS011;63946;51.986;5.930;2023-08-20T13:00:42;2.15;;;0.82;;
75356;SDS011;63946;51.986;5.930;2023-08-20T13:03:11;3.70;;;1.00;;
75356;SDS011;63946;51.986;5.930;2023-08-20T13:05:40;2.28;;;0.88;;
75356;SDS011;63946;51.986;5.930;2023-08-20T13:08:10;3.53;;;1.17;;
75356;SDS011;63946;51.986;5.930;2023-08-20T13:10:40;2.97;;;1.08;;
75356;SDS011;63946;51.986;5.930;2023-08-20T13:13:10;2.47;;;0.85;;
75356;SDS011;63946;51.986;5.930;2023-08-20T13:18:08;2.30;;;0.85;;
75356;SDS011;63946;51.986;5.930;2023-08-20T13:20:39;2.42;;;0.90;;
75356;SDS011;63946;51.986;5.930;2023-08-20T13:23:09;2.45;;;0.90;;
75356;SDS011;63946;51.986;5.930;2023-08-20T13:25:38;2.03;;;0.80;;
75356;SDS011;63946;51.986;5.930;2023-08-20T13:28:08;3.88;;;1.35;;
75356;SDS011;63946;51.986;5.930;2023-08-20T13:30:37;3.80;;;0.93;;
75356;SDS011;63946;51.986;5.930;2023-08-20T13:33:05;3.47;;;1.05;;
75356;SDS011;63946;51.986;5.930;2023-08-20T13:35:35;2.50;;;1.02;;
75356;SDS011;63946;51.986;5.930;2023-08-20T13:38:04;5.03;;;1.10;;
75356;SDS011;63946;51.986;5.930;2023-08-20T13:40:35;4.95;;;0.93;;
75356;SDS011;63946;51.986;5.930;2023-08-20T13:43:04;2.60;;;0.80;;
75356;SDS011;63946;51.986;5.930;2023-08-20T13:45:35;3.22;;;0.93;;
75356;SDS011;63946;51.986;5.930;2023-08-20T13:48:05;4.95;;;1.13;;
75356;SDS011;63946;51.986;5.930;2023-08-20T13:50:34;3.03;;;0.90;;
75356;SDS011;63946;51.986;5.930;2023-08-20T13:53:02;2.33;;;0.95;;
75356;SDS011;63946;51.986;5.930;2023-08-20T13:55:31;2.85;;;1.20;;
75356;SDS011;63946;51.986;5.930;2023-08-20T13:58:06;3.22;;;1.05;;
75356;SDS011;63946;51.986;5.930;2023-08-20T14:00:35;1.73;;;0.65;;
75356;SDS011;63946;51.986;5.930;2023-08-20T14:03:11;4.60;;;1.13;;
75356;SDS011;63946;51.986;5.930;2023-08-20T14:05:40;1.95;;;0.85;;
75356;SDS011;63946;51.986;5.930;2023-08-20T14:08:10;5.07;;;1.10;;
75356;SDS011;63946;51.986;5.930;2023-08-20T14:10:39;2.30;;;0.88;;
75356;SDS011;63946;51.986;5.930;2023-08-20T14:13:08;4.07;;;0.80;;
75356;SDS011;63946;51.986;5.930;2023-08-20T14:15:37;1.73;;;0.90;;
75356;SDS011;63946;51.986;5.930;2023-08-20T14:18:06;3.22;;;1.13;;
75356;SDS011;63946;51.986;5.930;2023-08-20T14:20:38;2.63;;;0.85;;
75356;SDS011;63946;51.986;5.930;2023-08-20T14:23:09;3.95;;;1.02;;
75356;SDS011;63946;51.986;5.930;2023-08-20T14:25:41;2.10;;;0.80;;
75356;SDS011;63946;51.986;5.930;2023-08-20T14:28:10;3.20;;;1.00;;
75356;SDS011;63946;51.986;5.930;2023-08-20T14:30:42;3.03;;;0.90;;
75356;SDS011;63946;51.986;5.930;2023-08-20T14:33:18;4.18;;;1.20;;
75356;SDS011;63946;51.986;5.930;2023-08-20T14:35:53;4.03;;;1.02;;
75356;SDS011;63946;51.986;5.930;2023-08-20T14:38:22;2.05;;;1.00;;
75356;SDS011;63946;51.986;5.930;2023-08-20T14:40:52;2.92;;;0.85;;
75356;SDS011;63946;51.986;5.930;2023-08-20T14:43:32;4.40;;;1.10;;
75356;SDS011;63946;51.986;5.930;2023-08-20T14:46:01;2.35;;;0.90;;
75356;SDS011;63946;51.986;5.930;2023-08-20T14:48:32;3.63;;;1.10;;
75356;SDS011;63946;51.986;5.930;2023-08-20T14:51:09;4.03;;;1.20;;
75356;SDS011;63946;51.986;5.930;2023-08-20T14:53:43;2.05;;;0.90;;
75356;SDS011;63946;51.986;5.930;2023-08-20T14:56:13;2.95;;;1.00;;
75356;SDS011;63946;51.986;5.930;2023-08-20T14:59:02;4.03;;;1.13;;
75356;SDS011;63946;51.986;5.930;2023-08-20T15:01:53;2.25;;;0.70;;
75356;SDS011;63946;51.986;5.930;2023-08-20T15:04:22;4.40;;;1.58;;
75356;SDS011;63946;51.986;5.930;2023-08-20T15:06:51;3.40;;;1.02;;
75356;SDS011;63946;51.986;5.930;2023-08-20T15:09:32;2.25;;;1.00;;
75356;SDS011;63946;51.986;5.930;2023-08-20T15:12:02;2.55;;;0.88;;
75356;SDS011;63946;51.986;5.930;2023-08-20T15:14:40;3.13;;;1.30;;
75356;SDS011;63946;51.986;5.930;2023-08-20T15:17:12;2.97;;;0.80;;
75356;SDS011;63946;51.986;5.930;2023-08-20T15:19:42;3.30;;;0.80;;
75356;SDS011;63946;51.986;5.930;2023-08-20T15:22:22;2.55;;;0.93;;
75356;SDS011;63946;51.986;5.930;2023-08-20T15:24:52;4.28;;;1.10;;
75356;SDS011;63946;51.986;5.930;2023-08-20T15:27:24;3.63;;;1.00;;
75356;SDS011;63946;51.986;5.930;2023-08-20T15:29:54;2.92;;;1.15;;
75356;SDS011;63946;51.986;5.930;2023-08-20T15:32:23;3.75;;;1.13;;
75356;SDS011;63946;51.986;5.930;2023-08-20T15:35:03;6.80;;;1.30;;
75356;SDS011;63946;51.986;5.930;2023-08-20T15:37:33;4.13;;;0.90;;
75356;SDS011;63946;51.986;5.930;2023-08-20T15:40:04;4.20;;;1.00;;
75356;SDS011;63946;51.986;5.930;2023-08-20T15:42:43;4.57;;;1.13;;
75356;SDS011;63946;51.986;5.930;2023-08-20T15:45:17;2.90;;;1.02;;
75356;SDS011;63946;51.986;5.930;2023-08-20T15:47:50;2.72;;;0.90;;
75356;SDS011;63946;51.986;5.930;2023-08-20T15:50:20;2.53;;;0.88;;
75356;SDS011;63946;51.986;5.930;2023-08-20T15:55:22;4.00;;;0.95;;
75356;SDS011;63946;51.986;5.930;2023-08-20T15:57:57;4.57;;;0.80;;
75356;SDS011;63946;51.986;5.930;2023-08-20T16:00:30;2.40;;;0.85;;
75356;SDS011;63946;51.986;5.930;2023-08-20T16:03:03;2.28;;;0.98;;
75356;SDS011;63946;51.986;5.930;2023-08-20T16:05:34;5.05;;;1.25;;
75356;SDS011;63946;51.986;5.930;2023-08-20T16:08:09;4.05;;;1.08;;
75356;SDS011;63946;51.986;5.930;2023-08-20T16:10:40;2.25;;;1.08;;
75356;SDS011;63946;51.986;5.930;2023-08-20T16:13:22;4.05;;;1.40;;
75356;SDS011;63946;51.986;5.930;2023-08-20T16:15:54;2.33;;;1.25;;
75356;SDS011;63946;51.986;5.930;2023-08-20T16:18:28;2.80;;;0.90;;
75356;SDS011;63946;51.986;5.930;2023-08-20T16:21:01;3.90;;;1.40;;
75356;SDS011;63946;51.986;5.930;2023-08-20T16:23:48;4.28;;;1.10;;
75356;SDS011;63946;51.986;5.930;2023-08-20T16:26:26;1.88;;;0.85;;
75356;SDS011;63946;51.986;5.930;2023-08-20T16:29:07;2.05;;;1.10;;
75356;SDS011;63946;51.986;5.930;2023-08-20T16:31:55;3.63;;;1.02;;
75356;SDS011;63946;51.986;5.930;2023-08-20T16:34:43;3.63;;;1.00;;
75356;SDS011;63946;51.986;5.930;2023-08-20T16:40:53;5.22;;;1.38;;
75356;SDS011;63946;51.986;5.930;2023-08-20T16:43:50;4.15;;;1.10;;
75356;SDS011;63946;51.986;5.930;2023-08-20T16:46:33;2.95;;;1.00;;
75356;SDS011;63946;51.986;5.930;2023-08-20T16:49:16;4.40;;;1.15;;
75356;SDS011;63946;51.986;5.930;2023-08-20T16:51:55;5.35;;;1.27;;
75356;SDS011;63946;51.986;5.930;2023-08-20T16:54:36;3.00;;;0.90;;
75356;SDS011;63946;51.986;5.930;2023-08-20T16:57:06;2.75;;;1.20;;
75356;SDS011;63946;51.986;5.930;2023-08-20T16:59:37;3.45;;;0.90;;
75356;SDS011;63946;51.986;5.930;2023-08-20T17:02:14;3.55;;;1.33;;
75356;SDS011;63946;51.986;5.930;2023-08-20T17:04:43;3.47;;;1.30;;
75356;SDS011;63946;51.986;5.930;2023-08-20T17:07:15;4.97;;;1.52;;
75356;SDS011;63946;51.986;5.930;2023-08-20T17:09:44;3.47;;;1.52;;
75356;SDS011;63946;51.986;5.930;2023-08-20T17:12:13;2.88;;;1.10;;
75356;SDS011;63946;51.986;5.930;2023-08-20T17:14:54;3.00;;;1.25;;
75356;SDS011;63946;51.986;5.930;2023-08-20T17:17:27;2.53;;;1.05;;
75356;SDS011;63946;51.986;5.930;2023-08-20T17:20:01;3.65;;;1.20;;
75356;SDS011;63946;51.986;5.930;2023-08-20T17:22:32;4.55;;;1.30;;
75356;SDS011;63946;51.986;5.930;2023-08-20T17:25:01;4.03;;;1.20;;
75356;SDS011;63946;51.986;5.930;2023-08-20T17:27:38;4.40;;;1.20;;
75356;SDS011;63946;51.986;5.930;2023-08-20T17:30:07;3.90;;;1.40;;
75356;SDS011;63946;51.986;5.930;2023-08-20T17:32:44;2.60;;;1.08;;
75356;SDS011;63946;51.986;5.930;2023-08-20T17:35:20;3.00;;;1.20;;
75356;SDS011;63946;51.986;5.930;2023-08-20T17:37:49;2.55;;;1.20;;
75356;SDS011;63946;51.986;5.930;2023-08-20T17:40:23;8.85;;;1.38;;
75356;SDS011;63946;51.986;5.930;2023-08-20T17:42:53;4.20;;;1.58;;
75356;SDS011;63946;51.986;5.930;2023-08-20T17:45:22;4.85;;;1.73;;
75356;SDS011;63946;51.986;5.930;2023-08-20T17:47:57;4.38;;;1.55;;
75356;SDS011;63946;51.986;5.930;2023-08-20T17:50:27;3.40;;;1.30;;
75356;SDS011;63946;51.986;5.930;2023-08-20T17:52:58;2.65;;;1.20;;
75356;SDS011;63946;51.986;5.930;2023-08-20T17:55:33;4.18;;;1.27;;
75356;SDS011;63946;51.986;5.930;2023-08-20T17:58:05;3.63;;;1.17;;
75356;SDS011;63946;51.986;5.930;2023-08-20T18:00:34;1.85;;;0.90;;
75356;SDS011;63946;51.986;5.930;2023-08-20T18:03:12;4.78;;;1.20;;
75356;SDS011;63946;51.986;5.930;2023-08-20T18:05:53;4.32;;;1.20;;
75356;SDS011;63946;51.986;5.930;2023-08-20T18:08:26;3.05;;;1.00;;
75356;SDS011;63946;51.986;5.930;2023-08-20T18:10:55;2.53;;;0.88;;
75356;SDS011;63946;51.986;5.930;2023-08-20T18:13:25;3.42;;;1.25;;
75356;SDS011;63946;51.986;5.930;2023-08-20T18:15:54;3.97;;;1.40;;
75356;SDS011;63946;51.986;5.930;2023-08-20T18:18:26;4.03;;;1.27;;
75356;SDS011;63946;51.986;5.930;2023-08-20T18:21:02;4.38;;;1.27;;
75356;SDS011;63946;51.986;5.930;2023-08-20T18:23:32;2.42;;;1.20;;
75356;SDS011;63946;51.986;5.930;2023-08-20T18:26:03;2.83;;;1.13;;
75356;SDS011;63946;51.986;5.930;2023-08-20T18:28:32;4.95;;;1.60;;
75356;SDS011;63946;51.986;5.930;2023-08-20T18:31:02;4.75;;;1.50;;
75356;SDS011;63946;51.986;5.930;2023-08-20T18:33:31;3.47;;;1.10;;
75356;SDS011;63946;51.986;5.930;2023-08-20T18:36:00;3.25;;;1.50;;
75356;SDS011;63946;51.986;5.930;2023-08-20T18:38:45;2.70;;;1.10;;
75356;SDS011;63946;51.986;5.930;2023-08-20T18:41:16;3.45;;;1.52;;
75356;SDS011;63946;51.986;5.930;2023-08-20T18:43:46;2.47;;;1.00;;
75356;SDS011;63946;51.986;5.930;2023-08-20T18:46:16;1.90;;;0.80;;
75356;SDS011;63946;51.986;5.930;2023-08-20T18:48:45;4.57;;;1.10;;
75356;SDS011;63946;51.986;5.930;2023-08-20T18:51:19;3.45;;;1.25;;
75356;SDS011;63946;51.986;5.930;2023-08-20T18:53:50;3.72;;;1.15;;
75356;SDS011;63946;51.986;5.930;2023-08-20T18:56:18;3.33;;;1.17;;
75356;SDS011;63946;51.986;5.930;2023-08-20T18:58:50;2.70;;;1.02;;
75356;SDS011;63946;51.986;5.930;2023-08-20T19:01:19;5.40;;;1.15;;
75356;SDS011;63946;51.986;5.930;2023-08-20T19:03:48;2.50;;;1.23;;
75356;SDS011;63946;51.986;5.930;2023-08-20T19:06:20;4.82;;;1.52;;
75356;SDS011;63946;51.986;5.930;2023-08-20T19:08:49;2.70;;;0.98;;
75356;SDS011;63946;51.986;5.930;2023-08-20T19:11:18;2.67;;;1.10;;
75356;SDS011;63946;51.986;5.930;2023-08-20T19:13:47;4.22;;;1.13;;
75356;SDS011;63946;51.986;5.930;2023-08-20T19:16:16;3.58;;;1.42;;
75356;SDS011;63946;51.986;5.930;2023-08-20T19:18:45;4.25;;;1.30;;
75356;SDS011;63946;51.986;5.930;2023-08-20T19:21:18;7.90;;;1.35;;
75356;SDS011;63946;51.986;5.930;2023-08-20T19:23:47;3.70;;;1.88;;
75356;SDS011;63946;51.986;5.930;2023-08-20T19:26:19;3.75;;;1.23;;
75356;SDS011;63946;51.986;5.930;2023-08-20T19:28:51;2.90;;;1.15;;
75356;SDS011;63946;51.986;5.930;2023-08-20T19:31:20;3.35;;;1.33;;
75356;SDS011;63946;51.986;5.930;2023-08-20T19:33:52;3.65;;;1.00;;
75356;SDS011;63946;51.986;5.930;2023-08-20T19:36:23;4.70;;;1.38;;
75356;SDS011;63946;51.986;5.930;2023-08-20T19:38:55;4.30;;;1.20;;
75356;SDS011;63946;51.986;5.930;2023-08-20T19:44:47;5.57;;;1.48;;
75356;SDS011;63946;51.986;5.930;2023-08-20T19:47:19;6.20;;;1.48;;
75356;SDS011;63946;51.986;5.930;2023-08-20T19:49:48;4.88;;;1.65;;
75356;SDS011;63946;51.986;5.930;2023-08-20T19:52:20;4.43;;;1.30;;
75356;SDS011;63946;51.986;5.930;2023-08-20T19:54:49;5.68;;;1.40;;
75356;SDS011;63946;51.986;5.930;2023-08-20T19:57:22;1.38;;;0.80;;
75356;SDS011;63946;51.986;5.930;2023-08-20T19:59:53;3.22;;;1.13;;
75356;SDS011;63946;51.986;5.930;2023-08-20T20:02:22;4.00;;;1.10;;
75356;SDS011;63946;51.986;5.930;2023-08-20T20:04:51;5.10;;;1.58;;
75356;SDS011;63946;51.986;5.930;2023-08-20T20:07:20;4.65;;;1.30;;
75356;SDS011;63946;51.986;5.930;2023-08-20T20:09:48;3.08;;;1.10;;
75356;SDS011;63946;51.986;5.930;2023-08-20T20:12:17;4.65;;;1.63;;
75356;SDS011;63946;51.986;5.930;2023-08-20T20:14:46;5.32;;;1.38;;
75356;SDS011;63946;51.986;5.930;2023-08-20T20:17:15;4.40;;;1.42;;
75356;SDS011;63946;51.986;5.930;2023-08-20T20:19:44;3.60;;;1.40;;
75356;SDS011;63946;51.986;5.930;2023-08-20T20:22:17;2.25;;;0.82;;
75356;SDS011;63946;51.986;5.930;2023-08-20T20:24:47;2.15;;;1.05;;
75356;SDS011;63946;51.986;5.930;2023-08-20T20:27:16;4.65;;;1.60;;
75356;SDS011;63946;51.986;5.930;2023-08-20T20:29:46;3.13;;;1.08;;
75356;SDS011;63946;51.986;5.930;2023-08-20T20:32:15;3.40;;;1.27;;
75356;SDS011;63946;51.986;5.930;2023-08-20T20:34:46;2.90;;;1.15;;
75356;SDS011;63946;51.986;5.930;2023-08-20T20:37:15;3.80;;;1.13;;
75356;SDS011;63946;51.986;5.930;2023-08-20T20:39:48;2.83;;;1.15;;
75356;SDS011;63946;51.986;5.930;2023-08-20T20:42:17;3.55;;;0.98;;
75356;SDS011;63946;51.986;5.930;2023-08-20T20:44:46;3.92;;;1.20;;
